createdAt,value
2018-01-27T00:00:00.000Z,99554
2018-01-27T00:05:00.000Z,99564
2018-01-27T00:10:00.000Z,99565
2018-01-27T00:15:00.000Z,99552
2018-01-27T00:20:00.000Z,99568
2018-01-27T00:25:00.000Z,99562
2018-01-27T00:30:00.000Z,99563
2018-01-27T00:35:00.000Z,99573
2018-01-27T00:40:00.000Z,99584
2018-01-27T00:45:00.000Z,99588
2018-01-27T00:50:00.000Z,99595
2018-01-27T00:55:00.000Z,99589
2018-01-27T01:00:00.000Z,99592
2018-01-27T01:05:00.000Z,99590
2018-01-27T01:10:00.000Z,99586
2018-01-27T01:15:00.000Z,99591
2018-01-27T01:20:00.000Z,99589
2018-01-27T01:25:00.000Z,99596
2018-01-27T01:30:00.000Z,99606
2018-01-27T01:35:00.000Z,99598
2018-01-27T01:40:00.000Z,99614
2018-01-27T01:45:00.000Z,99611
2018-01-27T01:50:00.000Z,99613
2018-01-27T01:55:00.000Z,99607
2018-01-27T02:00:00.000Z,99618
2018-01-27T02:05:00.000Z,99608
2018-01-27T02:10:00.000Z,99605
2018-01-27T02:15:00.000Z,99621
2018-01-27T02:20:00.000Z,99626
2018-01-27T02:26:00.000Z,99631
2018-01-27T02:31:00.000Z,99633
2018-01-27T02:36:00.000Z,99644
2018-01-27T02:41:00.000Z,99644
2018-01-27T02:46:00.000Z,99650
2018-01-27T02:51:00.000Z,99662
2018-01-27T02:56:00.000Z,99667
2018-01-27T03:01:00.000Z,99669
2018-01-27T03:06:00.000Z,99669
2018-01-27T03:11:00.000Z,99686
2018-01-27T03:16:00.000Z,99679
2018-01-27T03:21:00.000Z,99702
2018-01-27T03:26:00.000Z,99697
2018-01-27T03:31:00.000Z,99716
2018-01-27T03:36:00.000Z,99706
2018-01-27T03:41:00.000Z,99717
2018-01-27T03:46:00.000Z,99724
2018-01-27T03:51:00.000Z,99724
2018-01-27T03:56:00.000Z,99738
2018-01-27T04:01:00.000Z,99745
2018-01-27T04:06:00.000Z,99747
2018-01-27T04:11:00.000Z,99739
2018-01-27T04:16:00.000Z,99751
2018-01-27T04:21:00.000Z,99751
2018-01-27T04:26:00.000Z,99765
2018-01-27T04:31:00.000Z,99764
2018-01-27T04:36:00.000Z,99769
2018-01-27T04:41:00.000Z,99771
2018-01-27T04:46:00.000Z,99768
2018-01-27T04:51:00.000Z,99772
2018-01-27T04:56:00.000Z,99774
2018-01-27T05:01:00.000Z,99795
2018-01-27T05:06:00.000Z,99791
2018-01-27T05:11:00.000Z,99797
2018-01-27T05:16:00.000Z,99800
2018-01-27T05:21:00.000Z,99810
2018-01-27T05:26:00.000Z,99812
2018-01-27T05:31:00.000Z,99820
2018-01-27T05:36:00.000Z,99823
2018-01-27T05:41:00.000Z,99832
2018-01-27T05:46:00.000Z,99845
2018-01-27T05:51:00.000Z,99856
2018-01-27T05:56:00.000Z,99858
2018-01-27T06:01:00.000Z,99868
2018-01-27T06:06:00.000Z,99883
2018-01-27T06:11:00.000Z,99898
2018-01-27T06:16:00.000Z,99893
2018-01-27T06:21:00.000Z,99902
2018-01-27T06:26:00.000Z,99906
2018-01-27T06:31:00.000Z,99910
2018-01-27T06:36:00.000Z,99927
2018-01-27T06:41:00.000Z,99925
2018-01-27T06:46:00.000Z,99948
2018-01-27T06:51:00.000Z,99947
2018-01-27T06:56:00.000Z,99948
2018-01-27T07:01:00.000Z,99962
2018-01-27T07:06:00.000Z,99955
2018-01-27T07:11:00.000Z,99972
2018-01-27T07:16:00.000Z,99984
2018-01-27T07:21:00.000Z,99983
2018-01-27T07:26:00.000Z,99988
2018-01-27T07:31:00.000Z,99986
2018-01-27T07:36:00.000Z,99996
2018-01-27T07:41:00.000Z,99997
2018-01-27T07:46:00.000Z,99993
2018-01-27T07:51:00.000Z,99998
2018-01-27T07:56:00.000Z,100000
2018-01-27T08:01:00.000Z,99995
2018-01-27T08:06:00.000Z,100008
2018-01-27T08:12:00.000Z,100023
2018-01-27T08:17:00.000Z,100033
2018-01-27T08:22:00.000Z,100037
2018-01-27T08:27:00.000Z,100048
2018-01-27T08:32:00.000Z,100064
2018-01-27T08:37:00.000Z,100062
2018-01-27T08:42:00.000Z,100054
2018-01-27T08:47:00.000Z,100072
2018-01-27T08:52:00.000Z,100070
2018-01-27T08:57:00.000Z,100071
2018-01-27T09:02:00.000Z,100075
2018-01-27T09:07:00.000Z,100056
2018-01-27T09:12:00.000Z,100077
2018-01-27T09:17:00.000Z,100087
2018-01-27T09:22:00.000Z,100085
2018-01-27T09:27:00.000Z,100109
2018-01-27T09:32:00.000Z,100116
2018-01-27T09:37:00.000Z,100118
2018-01-27T09:42:00.000Z,100118
2018-01-27T09:47:00.000Z,100128
2018-01-27T09:52:00.000Z,100130
2018-01-27T09:57:00.000Z,100130
2018-01-27T10:02:00.000Z,100139
2018-01-27T10:07:00.000Z,100142
2018-01-27T10:12:00.000Z,100144
2018-01-27T10:17:00.000Z,100130
2018-01-27T10:22:00.000Z,100138
2018-01-27T10:27:00.000Z,100132
2018-01-27T10:32:00.000Z,100126
2018-01-27T10:37:00.000Z,100128
2018-01-27T10:42:00.000Z,100131
2018-01-27T10:47:00.000Z,100134
2018-01-27T10:52:00.000Z,100136
2018-01-27T10:57:00.000Z,100137
2018-01-27T11:02:00.000Z,100142
2018-01-27T11:07:00.000Z,100142
2018-01-27T11:12:00.000Z,100144
2018-01-27T11:17:00.000Z,100161
2018-01-27T11:22:00.000Z,100156
2018-01-27T11:27:00.000Z,100165
2018-01-27T11:32:00.000Z,100168
2018-01-27T11:37:00.000Z,100173
2018-01-27T11:42:00.000Z,100176
2018-01-27T11:47:00.000Z,100179
2018-01-27T11:52:00.000Z,100175
2018-01-27T11:57:00.000Z,100176
2018-01-27T12:02:00.000Z,100174
2018-01-27T12:07:00.000Z,100184
2018-01-27T12:12:00.000Z,100173
2018-01-27T12:17:00.000Z,100163
2018-01-27T12:22:00.000Z,100168
2018-01-27T12:27:00.000Z,100181
2018-01-27T12:32:00.000Z,100185
2018-01-27T12:37:00.000Z,100177
2018-01-27T12:42:00.000Z,100171
2018-01-27T12:47:00.000Z,100172
2018-01-27T12:52:00.000Z,100159
2018-01-27T12:57:00.000Z,100152
2018-01-27T13:02:00.000Z,100165
2018-01-27T13:07:00.000Z,100175
2018-01-27T13:12:00.000Z,100168
2018-01-27T13:17:00.000Z,100172
2018-01-27T13:22:00.000Z,100173
2018-01-27T13:27:00.000Z,100172
2018-01-27T13:32:00.000Z,100180
2018-01-27T13:37:00.000Z,100188
2018-01-27T13:42:00.000Z,100184
2018-01-27T13:47:00.000Z,100194
2018-01-27T13:52:00.000Z,100198
2018-01-27T13:57:00.000Z,100203
2018-01-27T14:02:00.000Z,100206
2018-01-27T14:07:00.000Z,100201
2018-01-27T14:12:00.000Z,100221
2018-01-27T14:18:00.000Z,100228
2018-01-27T14:23:00.000Z,100232
2018-01-27T14:28:00.000Z,100228
2018-01-27T14:33:00.000Z,100237
2018-01-27T14:38:00.000Z,100237
2018-01-27T14:43:00.000Z,100245
2018-01-27T14:48:00.000Z,100244
2018-01-27T14:53:00.000Z,100242
2018-01-27T14:58:00.000Z,100254
2018-01-27T15:03:00.000Z,100254
2018-01-27T15:08:00.000Z,100260
2018-01-27T15:13:00.000Z,100255
2018-01-27T15:18:00.000Z,100269
2018-01-27T15:23:00.000Z,100264
2018-01-27T15:28:00.000Z,100277
2018-01-27T15:33:00.000Z,100282
2018-01-27T15:38:00.000Z,100285
2018-01-27T15:43:00.000Z,100282
2018-01-27T15:48:00.000Z,100296
2018-01-27T15:53:00.000Z,100299
2018-01-27T15:58:00.000Z,100308
2018-01-27T16:03:00.000Z,100307
2018-01-27T16:08:00.000Z,100321
2018-01-27T16:13:00.000Z,100325
2018-01-27T16:18:00.000Z,100326
2018-01-27T16:23:00.000Z,100331
2018-01-27T16:28:00.000Z,100348
2018-01-27T16:33:00.000Z,100350
2018-01-27T16:38:00.000Z,100353
2018-01-27T16:43:00.000Z,100338
2018-01-27T16:48:00.000Z,100352
2018-01-27T16:53:00.000Z,100358
2018-01-27T16:58:00.000Z,100356
2018-01-27T17:03:00.000Z,100354
2018-01-27T17:08:00.000Z,100360
2018-01-27T17:13:00.000Z,100373
2018-01-27T17:18:00.000Z,100368
2018-01-27T17:23:00.000Z,100375
2018-01-27T17:28:00.000Z,100385
2018-01-27T17:33:00.000Z,100388
2018-01-27T17:38:00.000Z,100392
2018-01-27T17:43:00.000Z,100396
2018-01-27T17:48:00.000Z,100392
2018-01-27T17:53:00.000Z,100393
2018-01-27T17:58:00.000Z,100397
2018-01-27T18:03:00.000Z,100412
2018-01-27T18:08:00.000Z,100414
2018-01-27T18:13:00.000Z,100416
2018-01-27T18:18:00.000Z,100413
2018-01-27T18:23:00.000Z,100421
2018-01-27T18:28:00.000Z,100429
2018-01-27T18:33:00.000Z,100419
2018-01-27T18:38:00.000Z,100420
2018-01-27T18:43:00.000Z,100417
2018-01-27T18:48:00.000Z,100424
2018-01-27T18:53:00.000Z,100413
2018-01-27T18:58:00.000Z,100418
2018-01-27T19:03:00.000Z,100414
2018-01-27T19:08:00.000Z,100416
2018-01-27T19:13:00.000Z,100424
2018-01-27T19:18:00.000Z,100425
2018-01-27T19:23:00.000Z,100419
2018-01-27T19:28:00.000Z,100429
2018-01-27T19:33:00.000Z,100434
2018-01-27T19:38:00.000Z,100442
2018-01-27T19:43:00.000Z,100453
2018-01-27T19:48:00.000Z,100459
2018-01-27T19:53:00.000Z,100454
2018-01-27T19:58:00.000Z,100456
2018-01-27T20:03:00.000Z,100459
2018-01-27T20:08:00.000Z,100468
2018-01-27T20:13:00.000Z,100450
2018-01-27T20:18:00.000Z,100464
2018-01-27T20:23:00.000Z,100458
2018-01-27T20:29:00.000Z,100455
2018-01-27T20:34:00.000Z,100454
2018-01-27T20:39:00.000Z,100448
2018-01-27T20:44:00.000Z,100461
2018-01-27T20:49:00.000Z,100464
2018-01-27T20:54:00.000Z,100472
2018-01-27T20:59:00.000Z,100476
2018-01-27T21:04:00.000Z,100490
2018-01-27T21:09:00.000Z,100474
2018-01-27T21:14:00.000Z,100459
2018-01-27T21:19:00.000Z,100465
2018-01-27T21:24:00.000Z,100454
2018-01-27T21:29:00.000Z,100461
2018-01-27T21:34:00.000Z,100461
2018-01-27T21:39:00.000Z,100455
2018-01-27T21:44:00.000Z,100463
2018-01-27T21:49:00.000Z,100475
2018-01-27T21:54:00.000Z,100484
2018-01-27T21:59:00.000Z,100484
2018-01-27T22:04:00.000Z,100491
2018-01-27T22:09:00.000Z,100478
2018-01-27T22:14:00.000Z,100479
2018-01-27T22:19:00.000Z,100469
2018-01-27T22:24:00.000Z,100463
2018-01-27T22:29:00.000Z,100472
2018-01-27T22:34:00.000Z,100467
2018-01-27T22:39:00.000Z,100442
2018-01-27T22:44:00.000Z,100459
2018-01-27T22:49:00.000Z,100449
2018-01-27T22:54:00.000Z,100438
2018-01-27T22:59:00.000Z,100435
2018-01-27T23:04:00.000Z,100418
2018-01-27T23:09:00.000Z,100429
2018-01-27T23:14:00.000Z,100429
2018-01-27T23:19:00.000Z,100437
2018-01-27T23:24:00.000Z,100439
2018-01-27T23:29:00.000Z,100436
2018-01-27T23:34:00.000Z,100438
2018-01-27T23:39:00.000Z,100439
2018-01-27T23:44:00.000Z,100433
2018-01-27T23:49:00.000Z,100433
2018-01-27T23:54:00.000Z,100428
2018-01-27T23:59:00.000Z,100419
